De Queen, Arkansas
Current Conditions -  °F | °C
As of 11:29 AM on Friday 19 Dec 2014 (Local Time) from KDEQ Reporting Station
Overcast Overcast  
Wind Chill: 41°   Ceiling: 1000
Heat Index: 44°   Visibility: 7mi
Dew Point: 43°   Wind: 6mph
Humidity: 96%   Direction: 30°NNE
Pressure: 30.21"   Gusts: NA
Location:  34.04°N, 94.34°W
Report Text: KDEQ 191729Z AUTO 03005KT 7SM OVC010 07/06 A3021 RMK AO2 RAE1657 P0000 T00670061
Loading
Personal Weather Stations






























Interactive Weather Map New forecast layout! Learn more

10-Day Weather Forecast

Advertisements
Track Severe Weather on mobile